Shepetivka, Ukraine
Current Conditions -  °F | °C
As of 12:30 PM on Saturday 01 Nov 2014 (Local Time) from UKLR Reporting Station
Broken Clouds Broken Clouds  
Wind Chill: 42°   Ceiling: 10000
Heat Index: 45°   Visibility: 6mi
Dew Point: 36°   Wind: 4mph
Humidity: 71%   Direction: 270°W
Pressure: 30.27"   Gusts: NA
Location:  50.18°N, 27.07°E
Report Text: UKLR 010930Z 27002MPS 220V020 9999 FEW023 BKN100 07/02 Q1025 30090070 NOSIG
Loading
Personal Weather Stations






























Interactive Weather Map
Tropical Storm Tracking
New forecast layout! Learn more

10-Day Weather Forecast

Advertisements
Track Severe Weather on mobile